sensor_id;sensor_type;location;lat;lon;timestamp;P1;durP1;ratioP1;P2;durP2;ratioP2
72037;SDS011;59900;50.788;12.904;2022-10-18T00:02:03;11.80;;;6.80;;
72037;SDS011;59900;50.788;12.904;2022-10-18T00:04:29;15.57;;;6.60;;
72037;SDS011;59900;50.788;12.904;2022-10-18T00:06:54;13.53;;;6.73;;
72037;SDS011;59900;50.788;12.904;2022-10-18T00:09:20;14.10;;;7.23;;
72037;SDS011;59900;50.788;12.904;2022-10-18T00:11:45;15.03;;;7.37;;
72037;SDS011;59900;50.788;12.904;2022-10-18T00:14:10;10.87;;;6.37;;
72037;SDS011;59900;50.788;12.904;2022-10-18T00:16:35;15.43;;;7.30;;
72037;SDS011;59900;50.788;12.904;2022-10-18T00:19:01;16.07;;;7.90;;
72037;SDS011;59900;50.788;12.904;2022-10-18T00:21:26;11.57;;;6.53;;
72037;SDS011;59900;50.788;12.904;2022-10-18T00:23:52;13.67;;;7.07;;
72037;SDS011;59900;50.788;12.904;2022-10-18T00:26:18;12.57;;;7.10;;
72037;SDS011;59900;50.788;12.904;2022-10-18T00:28:48;13.52;;;7.20;;
72037;SDS011;59900;50.788;12.904;2022-10-18T00:31:20;11.65;;;6.97;;
72037;SDS011;59900;50.788;12.904;2022-10-18T00:33:51;15.37;;;7.33;;
72037;SDS011;59900;50.788;12.904;2022-10-18T00:36:18;12.50;;;6.60;;
72037;SDS011;59900;50.788;12.904;2022-10-18T00:38:44;12.13;;;6.43;;
72037;SDS011;59900;50.788;12.904;2022-10-18T00:41:10;10.95;;;6.60;;
72037;SDS011;59900;50.788;12.904;2022-10-18T00:43:56;11.77;;;6.90;;
72037;SDS011;59900;50.788;12.904;2022-10-18T00:46:25;10.57;;;5.82;;
72037;SDS011;59900;50.788;12.904;2022-10-18T00:48:53;11.05;;;5.95;;
72037;SDS011;59900;50.788;12.904;2022-10-18T00:51:20;12.57;;;6.95;;
72037;SDS011;59900;50.788;12.904;2022-10-18T00:53:47;14.75;;;7.05;;
72037;SDS011;59900;50.788;12.904;2022-10-18T00:56:13;10.53;;;6.00;;
72037;SDS011;59900;50.788;12.904;2022-10-18T00:58:38;10.90;;;6.03;;
72037;SDS011;59900;50.788;12.904;2022-10-18T01:01:05;10.90;;;5.93;;
72037;SDS011;59900;50.788;12.904;2022-10-18T01:03:31;12.13;;;6.60;;
72037;SDS011;59900;50.788;12.904;2022-10-18T01:05:56;13.17;;;6.97;;
72037;SDS011;59900;50.788;12.904;2022-10-18T01:08:33;14.50;;;6.53;;
72037;SDS011;59900;50.788;12.904;2022-10-18T01:11:32;13.10;;;6.10;;
72037;SDS011;59900;50.788;12.904;2022-10-18T01:17:19;13.50;;;6.60;;
72037;SDS011;59900;50.788;12.904;2022-10-18T01:20:00;18.35;;;7.00;;
72037;SDS011;59900;50.788;12.904;2022-10-18T01:25:15;10.90;;;6.22;;
72037;SDS011;59900;50.788;12.904;2022-10-18T01:32:59;12.15;;;6.78;;
72037;SDS011;59900;50.788;12.904;2022-10-18T01:35:31;12.02;;;6.03;;
72037;SDS011;59900;50.788;12.904;2022-10-18T01:38:00;12.25;;;6.35;;
72037;SDS011;59900;50.788;12.904;2022-10-18T01:40:29;13.30;;;6.85;;
72037;SDS011;59900;50.788;12.904;2022-10-18T01:42:56;12.07;;;6.10;;
72037;SDS011;59900;50.788;12.904;2022-10-18T01:45:21;11.63;;;6.50;;
72037;SDS011;59900;50.788;12.904;2022-10-18T01:47:49;11.98;;;6.40;;
72037;SDS011;59900;50.788;12.904;2022-10-18T01:50:21;12.38;;;7.13;;
72037;SDS011;59900;50.788;12.904;2022-10-18T01:52:56;12.55;;;6.18;;
72037;SDS011;59900;50.788;12.904;2022-10-18T01:55:24;14.15;;;6.32;;
72037;SDS011;59900;50.788;12.904;2022-10-18T01:58:17;10.30;;;5.67;;
72037;SDS011;59900;50.788;12.904;2022-10-18T02:00:47;11.82;;;5.63;;
72037;SDS011;59900;50.788;12.904;2022-10-18T02:03:21;14.70;;;6.30;;
72037;SDS011;59900;50.788;12.904;2022-10-18T02:05:55;14.15;;;6.32;;
72037;SDS011;59900;50.788;12.904;2022-10-18T02:08:45;13.77;;;5.93;;
72037;SDS011;59900;50.788;12.904;2022-10-18T02:11:18;14.30;;;5.90;;
72037;SDS011;59900;50.788;12.904;2022-10-18T02:13:45;11.88;;;5.97;;
72037;SDS011;59900;50.788;12.904;2022-10-18T02:16:19;11.00;;;6.43;;
72037;SDS011;59900;50.788;12.904;2022-10-18T02:18:49;13.90;;;6.18;;
72037;SDS011;59900;50.788;12.904;2022-10-18T02:21:19;14.50;;;6.40;;
72037;SDS011;59900;50.788;12.904;2022-10-18T02:23:45;12.73;;;6.50;;
72037;SDS011;59900;50.788;12.904;2022-10-18T02:26:12;11.90;;;6.67;;
72037;SDS011;59900;50.788;12.904;2022-10-18T02:28:38;13.35;;;6.40;;
72037;SDS011;59900;50.788;12.904;2022-10-18T02:33:57;13.85;;;6.28;;
72037;SDS011;59900;50.788;12.904;2022-10-18T02:36:31;11.52;;;5.80;;
72037;SDS011;59900;50.788;12.904;2022-10-18T02:39:01;12.05;;;5.75;;
72037;SDS011;59900;50.788;12.904;2022-10-18T02:41:30;11.02;;;5.50;;
72037;SDS011;59900;50.788;12.904;2022-10-18T02:43:56;15.00;;;6.07;;
72037;SDS011;59900;50.788;12.904;2022-10-18T02:46:22;14.13;;;6.20;;
72037;SDS011;59900;50.788;12.904;2022-10-18T02:48:47;15.90;;;7.50;;
72037;SDS011;59900;50.788;12.904;2022-10-18T02:51:13;12.45;;;6.35;;
72037;SDS011;59900;50.788;12.904;2022-10-18T02:53:38;13.77;;;6.93;;
72037;SDS011;59900;50.788;12.904;2022-10-18T02:56:04;14.23;;;7.03;;
72037;SDS011;59900;50.788;12.904;2022-10-18T02:58:29;12.00;;;6.63;;
72037;SDS011;59900;50.788;12.904;2022-10-18T03:00:54;13.40;;;7.30;;
72037;SDS011;59900;50.788;12.904;2022-10-18T03:03:20;11.27;;;7.17;;
72037;SDS011;59900;50.788;12.904;2022-10-18T03:05:48;13.47;;;7.17;;
72037;SDS011;59900;50.788;12.904;2022-10-18T03:08:14;14.27;;;7.28;;
72037;SDS011;59900;50.788;12.904;2022-10-18T03:10:39;15.80;;;7.47;;
72037;SDS011;59900;50.788;12.904;2022-10-18T03:13:07;17.23;;;7.57;;
72037;SDS011;59900;50.788;12.904;2022-10-18T03:15:33;18.10;;;8.20;;
72037;SDS011;59900;50.788;12.904;2022-10-18T03:17:58;13.70;;;7.13;;
72037;SDS011;59900;50.788;12.904;2022-10-18T03:20:23;14.47;;;7.00;;
72037;SDS011;59900;50.788;12.904;2022-10-18T03:22:48;14.37;;;6.53;;
72037;SDS011;59900;50.788;12.904;2022-10-18T03:25:14;10.93;;;6.33;;
72037;SDS011;59900;50.788;12.904;2022-10-18T03:27:39;11.98;;;5.90;;
72037;SDS011;59900;50.788;12.904;2022-10-18T03:30:04;10.13;;;5.80;;
72037;SDS011;59900;50.788;12.904;2022-10-18T03:32:30;10.90;;;5.90;;
72037;SDS011;59900;50.788;12.904;2022-10-18T03:34:55;14.70;;;6.67;;
72037;SDS011;59900;50.788;12.904;2022-10-18T03:37:20;13.10;;;6.90;;
72037;SDS011;59900;50.788;12.904;2022-10-18T03:39:46;13.57;;;6.47;;
72037;SDS011;59900;50.788;12.904;2022-10-18T03:42:11;12.93;;;6.53;;
72037;SDS011;59900;50.788;12.904;2022-10-18T03:44:36;11.40;;;6.23;;
72037;SDS011;59900;50.788;12.904;2022-10-18T03:47:02;11.40;;;6.80;;
72037;SDS011;59900;50.788;12.904;2022-10-18T03:49:27;12.43;;;6.57;;
72037;SDS011;59900;50.788;12.904;2022-10-18T03:51:52;16.93;;;7.80;;
72037;SDS011;59900;50.788;12.904;2022-10-18T03:54:17;13.13;;;7.23;;
72037;SDS011;59900;50.788;12.904;2022-10-18T03:56:43;14.00;;;7.67;;
72037;SDS011;59900;50.788;12.904;2022-10-18T03:59:08;12.67;;;6.83;;
72037;SDS011;59900;50.788;12.904;2022-10-18T04:01:33;14.67;;;6.93;;
72037;SDS011;59900;50.788;12.904;2022-10-18T04:03:59;13.20;;;7.23;;
72037;SDS011;59900;50.788;12.904;2022-10-18T04:06:24;15.53;;;6.67;;
72037;SDS011;59900;50.788;12.904;2022-10-18T04:08:49;12.10;;;7.43;;
72037;SDS011;59900;50.788;12.904;2022-10-18T04:11:14;11.33;;;6.50;;
72037;SDS011;59900;50.788;12.904;2022-10-18T04:13:40;13.97;;;6.57;;
72037;SDS011;59900;50.788;12.904;2022-10-18T04:16:05;12.50;;;6.97;;
72037;SDS011;59900;50.788;12.904;2022-10-18T04:18:30;14.50;;;7.77;;
72037;SDS011;59900;50.788;12.904;2022-10-18T04:20:55;11.37;;;6.40;;
72037;SDS011;59900;50.788;12.904;2022-10-18T04:23:21;12.47;;;6.57;;
72037;SDS011;59900;50.788;12.904;2022-10-18T04:25:46;13.30;;;6.40;;
72037;SDS011;59900;50.788;12.904;2022-10-18T04:28:11;15.10;;;7.27;;
72037;SDS011;59900;50.788;12.904;2022-10-18T04:30:37;15.77;;;7.00;;
72037;SDS011;59900;50.788;12.904;2022-10-18T04:33:02;13.67;;;8.03;;
72037;SDS011;59900;50.788;12.904;2022-10-18T04:35:27;14.97;;;7.53;;
72037;SDS011;59900;50.788;12.904;2022-10-18T04:37:53;13.50;;;7.53;;
72037;SDS011;59900;50.788;12.904;2022-10-18T04:40:19;16.80;;;7.50;;
72037;SDS011;59900;50.788;12.904;2022-10-18T04:42:45;13.73;;;7.10;;
72037;SDS011;59900;50.788;12.904;2022-10-18T04:45:10;14.60;;;7.05;;
72037;SDS011;59900;50.788;12.904;2022-10-18T04:47:36;14.63;;;6.73;;
72037;SDS011;59900;50.788;12.904;2022-10-18T04:50:01;14.43;;;7.50;;
72037;SDS011;59900;50.788;12.904;2022-10-18T04:52:26;12.90;;;7.30;;
72037;SDS011;59900;50.788;12.904;2022-10-18T04:54:52;12.93;;;6.60;;
72037;SDS011;59900;50.788;12.904;2022-10-18T04:57:17;15.23;;;6.93;;
72037;SDS011;59900;50.788;12.904;2022-10-18T04:59:42;12.60;;;7.40;;
72037;SDS011;59900;50.788;12.904;2022-10-18T05:02:07;12.17;;;6.37;;
72037;SDS011;59900;50.788;12.904;2022-10-18T05:04:33;13.87;;;7.00;;
72037;SDS011;59900;50.788;12.904;2022-10-18T05:06:58;15.07;;;8.13;;
72037;SDS011;59900;50.788;12.904;2022-10-18T05:09:23;19.37;;;9.77;;
72037;SDS011;59900;50.788;12.904;2022-10-18T05:11:49;19.23;;;9.97;;
72037;SDS011;59900;50.788;12.904;2022-10-18T05:14:14;17.40;;;9.57;;
72037;SDS011;59900;50.788;12.904;2022-10-18T05:16:40;16.70;;;9.32;;
72037;SDS011;59900;50.788;12.904;2022-10-18T05:19:05;15.43;;;8.40;;
72037;SDS011;59900;50.788;12.904;2022-10-18T05:21:31;15.90;;;9.60;;
72037;SDS011;59900;50.788;12.904;2022-10-18T05:23:56;14.67;;;8.30;;
72037;SDS011;59900;50.788;12.904;2022-10-18T05:26:21;17.15;;;8.40;;
72037;SDS011;59900;50.788;12.904;2022-10-18T05:28:48;14.17;;;7.23;;
72037;SDS011;59900;50.788;12.904;2022-10-18T05:31:13;12.73;;;7.10;;
72037;SDS011;59900;50.788;12.904;2022-10-18T05:33:39;14.10;;;7.40;;
72037;SDS011;59900;50.788;12.904;2022-10-18T05:36:04;15.57;;;8.03;;
72037;SDS011;59900;50.788;12.904;2022-10-18T05:38:29;24.07;;;13.70;;
72037;SDS011;59900;50.788;12.904;2022-10-18T05:40:55;24.20;;;14.13;;
72037;SDS011;59900;50.788;12.904;2022-10-18T05:43:21;21.23;;;12.20;;
72037;SDS011;59900;50.788;12.904;2022-10-18T05:45:47;15.60;;;8.47;;
72037;SDS011;59900;50.788;12.904;2022-10-18T05:48:13;15.73;;;7.20;;
72037;SDS011;59900;50.788;12.904;2022-10-18T05:50:38;14.30;;;6.50;;
72037;SDS011;59900;50.788;12.904;2022-10-18T05:53:03;11.90;;;6.67;;
72037;SDS011;59900;50.788;12.904;2022-10-18T05:55:29;16.57;;;8.77;;
72037;SDS011;59900;50.788;12.904;2022-10-18T05:57:54;19.03;;;8.07;;
72037;SDS011;59900;50.788;12.904;2022-10-18T06:00:19;16.20;;;6.07;;
72037;SDS011;59900;50.788;12.904;2022-10-18T06:02:44;11.03;;;5.97;;
72037;SDS011;59900;50.788;12.904;2022-10-18T06:05:10;12.90;;;6.50;;
72037;SDS011;59900;50.788;12.904;2022-10-18T06:07:35;12.60;;;6.23;;
72037;SDS011;59900;50.788;12.904;2022-10-18T06:10:00;16.87;;;6.40;;
72037;SDS011;59900;50.788;12.904;2022-10-18T06:12:26;11.10;;;6.10;;
72037;SDS011;59900;50.788;12.904;2022-10-18T06:14:51;12.00;;;6.20;;
72037;SDS011;59900;50.788;12.904;2022-10-18T06:17:16;10.77;;;6.07;;
72037;SDS011;59900;50.788;12.904;2022-10-18T06:19:41;11.57;;;6.50;;
72037;SDS011;59900;50.788;12.904;2022-10-18T06:22:10;12.97;;;5.87;;
72037;SDS011;59900;50.788;12.904;2022-10-18T06:24:36;13.57;;;5.57;;
72037;SDS011;59900;50.788;12.904;2022-10-18T06:27:02;12.93;;;6.13;;
72037;SDS011;59900;50.788;12.904;2022-10-18T06:29:36;15.75;;;6.10;;
72037;SDS011;59900;50.788;12.904;2022-10-18T06:32:02;14.15;;;6.65;;
72037;SDS011;59900;50.788;12.904;2022-10-18T06:34:28;24.80;;;6.78;;
72037;SDS011;59900;50.788;12.904;2022-10-18T06:36:54;10.43;;;6.10;;
72037;SDS011;59900;50.788;12.904;2022-10-18T06:39:19;12.67;;;6.00;;
72037;SDS011;59900;50.788;12.904;2022-10-18T06:41:44;13.50;;;6.53;;
72037;SDS011;59900;50.788;12.904;2022-10-18T06:44:10;12.90;;;6.30;;
72037;SDS011;59900;50.788;12.904;2022-10-18T06:46:39;14.48;;;6.70;;
72037;SDS011;59900;50.788;12.904;2022-10-18T06:49:05;13.93;;;6.28;;
72037;SDS011;59900;50.788;12.904;2022-10-18T06:51:31;12.43;;;6.30;;
72037;SDS011;59900;50.788;12.904;2022-10-18T06:53:56;12.87;;;6.67;;
72037;SDS011;59900;50.788;12.904;2022-10-18T06:56:21;14.20;;;6.53;;
72037;SDS011;59900;50.788;12.904;2022-10-18T06:58:46;11.17;;;5.90;;
72037;SDS011;59900;50.788;12.904;2022-10-18T07:01:13;10.00;;;6.00;;
72037;SDS011;59900;50.788;12.904;2022-10-18T07:03:40;13.18;;;6.13;;
72037;SDS011;59900;50.788;12.904;2022-10-18T07:06:07;13.82;;;5.75;;
72037;SDS011;59900;50.788;12.904;2022-10-18T07:08:33;9.87;;;5.80;;
72037;SDS011;59900;50.788;12.904;2022-10-18T07:10:59;16.00;;;6.05;;
72037;SDS011;59900;50.788;12.904;2022-10-18T07:13:26;12.87;;;6.67;;
72037;SDS011;59900;50.788;12.904;2022-10-18T07:16:01;10.88;;;6.32;;
72037;SDS011;59900;50.788;12.904;2022-10-18T07:18:29;12.48;;;6.57;;
72037;SDS011;59900;50.788;12.904;2022-10-18T07:20:55;18.00;;;7.38;;
72037;SDS011;59900;50.788;12.904;2022-10-18T07:23:20;16.30;;;7.13;;
72037;SDS011;59900;50.788;12.904;2022-10-18T07:25:47;13.70;;;6.47;;
72037;SDS011;59900;50.788;12.904;2022-10-18T07:28:13;11.00;;;6.13;;
72037;SDS011;59900;50.788;12.904;2022-10-18T07:30:38;16.97;;;7.83;;
72037;SDS011;59900;50.788;12.904;2022-10-18T07:33:03;14.37;;;7.03;;
72037;SDS011;59900;50.788;12.904;2022-10-18T07:35:29;15.83;;;7.30;;
72037;SDS011;59900;50.788;12.904;2022-10-18T07:37:54;13.77;;;6.90;;
72037;SDS011;59900;50.788;12.904;2022-10-18T07:40:19;15.82;;;7.40;;
72037;SDS011;59900;50.788;12.904;2022-10-18T07:42:45;13.70;;;7.50;;
72037;SDS011;59900;50.788;12.904;2022-10-18T07:45:10;14.97;;;6.90;;
72037;SDS011;59900;50.788;12.904;2022-10-18T07:47:36;12.95;;;6.60;;
72037;SDS011;59900;50.788;12.904;2022-10-18T07:50:01;13.07;;;6.60;;
72037;SDS011;59900;50.788;12.904;2022-10-18T07:52:27;13.40;;;6.63;;
72037;SDS011;59900;50.788;12.904;2022-10-18T07:54:52;12.13;;;6.23;;
72037;SDS011;59900;50.788;12.904;2022-10-18T07:57:17;13.37;;;6.10;;
72037;SDS011;59900;50.788;12.904;2022-10-18T07:59:42;14.47;;;5.97;;
72037;SDS011;59900;50.788;12.904;2022-10-18T08:02:10;11.63;;;6.38;;
72037;SDS011;59900;50.788;12.904;2022-10-18T08:04:35;13.77;;;5.90;;
72037;SDS011;59900;50.788;12.904;2022-10-18T08:07:01;11.37;;;5.90;;
72037;SDS011;59900;50.788;12.904;2022-10-18T08:09:26;11.43;;;6.43;;
72037;SDS011;59900;50.788;12.904;2022-10-18T08:11:51;18.10;;;7.17;;
72037;SDS011;59900;50.788;12.904;2022-10-18T08:14:16;12.00;;;6.73;;
72037;SDS011;59900;50.788;12.904;2022-10-18T08:16:42;13.20;;;6.00;;
72037;SDS011;59900;50.788;12.904;2022-10-18T08:19:07;12.40;;;6.87;;
72037;SDS011;59900;50.788;12.904;2022-10-18T08:21:32;13.50;;;7.10;;
72037;SDS011;59900;50.788;12.904;2022-10-18T08:23:57;14.57;;;6.60;;
72037;SDS011;59900;50.788;12.904;2022-10-18T08:26:23;14.07;;;6.57;;
72037;SDS011;59900;50.788;12.904;2022-10-18T08:28:48;14.57;;;7.10;;
72037;SDS011;59900;50.788;12.904;2022-10-18T08:31:14;20.67;;;6.78;;
72037;SDS011;59900;50.788;12.904;2022-10-18T08:33:42;13.47;;;6.37;;
72037;SDS011;59900;50.788;12.904;2022-10-18T08:36:08;14.80;;;6.67;;
72037;SDS011;59900;50.788;12.904;2022-10-18T08:38:36;15.40;;;6.60;;
72037;SDS011;59900;50.788;12.904;2022-10-18T08:41:16;16.45;;;6.57;;
72037;SDS011;59900;50.788;12.904;2022-10-18T08:43:44;20.70;;;7.05;;
72037;SDS011;59900;50.788;12.904;2022-10-18T08:46:13;17.25;;;6.82;;
72037;SDS011;59900;50.788;12.904;2022-10-18T08:48:40;13.07;;;6.07;;
72037;SDS011;59900;50.788;12.904;2022-10-18T08:51:14;15.10;;;6.18;;
72037;SDS011;59900;50.788;12.904;2022-10-18T08:53:55;17.33;;;7.13;;
72037;SDS011;59900;50.788;12.904;2022-10-18T08:56:27;12.77;;;6.75;;
72037;SDS011;59900;50.788;12.904;2022-10-18T08:58:53;13.40;;;6.80;;
72037;SDS011;59900;50.788;12.904;2022-10-18T09:04:08;16.23;;;6.30;;
72037;SDS011;59900;50.788;12.904;2022-10-18T09:09:38;12.27;;;6.03;;
72037;SDS011;59900;50.788;12.904;2022-10-18T09:12:24;13.82;;;6.30;;
72037;SDS011;59900;50.788;12.904;2022-10-18T09:17:46;14.43;;;7.00;;
72037;SDS011;59900;50.788;12.904;2022-10-18T09:20:24;15.63;;;8.38;;
72037;SDS011;59900;50.788;12.904;2022-10-18T09:25:40;17.92;;;7.47;;
72037;SDS011;59900;50.788;12.904;2022-10-18T09:31:04;13.67;;;6.57;;
72037;SDS011;59900;50.788;12.904;2022-10-18T09:33:39;14.52;;;6.68;;
72037;SDS011;59900;50.788;12.904;2022-10-18T09:36:19;13.02;;;6.45;;
72037;SDS011;59900;50.788;12.904;2022-10-18T09:38:51;16.52;;;6.55;;
72037;SDS011;59900;50.788;12.904;2022-10-18T09:41:26;11.57;;;6.05;;
72037;SDS011;59900;50.788;12.904;2022-10-18T09:44:00;13.33;;;6.00;;
72037;SDS011;59900;50.788;12.904;2022-10-18T09:46:31;16.15;;;6.00;;
72037;SDS011;59900;50.788;12.904;2022-10-18T09:49:02;9.48;;;4.90;;
72037;SDS011;59900;50.788;12.904;2022-10-18T09:51:35;7.63;;;4.13;;
72037;SDS011;59900;50.788;12.904;2022-10-18T09:59:42;12.18;;;5.63;;
72037;SDS011;59900;50.788;12.904;2022-10-18T10:02:12;12.77;;;6.03;;
72037;SDS011;59900;50.788;12.904;2022-10-18T10:04:39;12.18;;;6.30;;
72037;SDS011;59900;50.788;12.904;2022-10-18T10:07:06;15.77;;;7.00;;
72037;SDS011;59900;50.788;12.904;2022-10-18T10:09:36;10.27;;;6.45;;
72037;SDS011;59900;50.788;12.904;2022-10-18T10:12:22;17.23;;;7.75;;
72037;SDS011;59900;50.788;12.904;2022-10-18T10:14:49;10.43;;;6.43;;
72037;SDS011;59900;50.788;12.904;2022-10-18T10:17:23;13.00;;;7.17;;
72037;SDS011;59900;50.788;12.904;2022-10-18T10:19:57;13.73;;;7.53;;
72037;SDS011;59900;50.788;12.904;2022-10-18T10:22:45;17.50;;;9.43;;
72037;SDS011;59900;50.788;12.904;2022-10-18T10:25:19;16.08;;;9.45;;
72037;SDS011;59900;50.788;12.904;2022-10-18T10:27:47;17.95;;;10.48;;
72037;SDS011;59900;50.788;12.904;2022-10-18T10:30:24;16.10;;;9.87;;
72037;SDS011;59900;50.788;12.904;2022-10-18T10:32:54;20.30;;;11.32;;
72037;SDS011;59900;50.788;12.904;2022-10-18T10:37:52;17.23;;;10.82;;
72037;SDS011;59900;50.788;12.904;2022-10-18T10:40:27;18.52;;;10.60;;
72037;SDS011;59900;50.788;12.904;2022-10-18T10:42:59;15.73;;;10.93;;
72037;SDS011;59900;50.788;12.904;2022-10-18T10:45:28;16.70;;;11.10;;
72037;SDS011;59900;50.788;12.904;2022-10-18T10:48:06;17.88;;;10.43;;
72037;SDS011;59900;50.788;12.904;2022-10-18T10:50:54;20.00;;;11.02;;
72037;SDS011;59900;50.788;12.904;2022-10-18T10:53:27;16.60;;;10.20;;
72037;SDS011;59900;50.788;12.904;2022-10-18T10:56:02;18.77;;;10.33;;
72037;SDS011;59900;50.788;12.904;2022-10-18T10:58:32;13.25;;;8.68;;
72037;SDS011;59900;50.788;12.904;2022-10-18T11:01:16;14.75;;;9.40;;
72037;SDS011;59900;50.788;12.904;2022-10-18T11:03:45;14.48;;;9.30;;
72037;SDS011;59900;50.788;12.904;2022-10-18T11:06:24;14.93;;;8.73;;
72037;SDS011;59900;50.788;12.904;2022-10-18T11:08:57;13.67;;;9.10;;
72037;SDS011;59900;50.788;12.904;2022-10-18T11:11:26;15.02;;;8.25;;
72037;SDS011;59900;50.788;12.904;2022-10-18T11:14:00;14.35;;;8.32;;
72037;SDS011;59900;50.788;12.904;2022-10-18T11:19:39;15.63;;;8.13;;
72037;SDS011;59900;50.788;12.904;2022-10-18T11:22:20;13.63;;;8.10;;
72037;SDS011;59900;50.788;12.904;2022-10-18T11:24:49;12.07;;;8.35;;
72037;SDS011;59900;50.788;12.904;2022-10-18T11:27:24;14.43;;;8.98;;
72037;SDS011;59900;50.788;12.904;2022-10-18T11:29:59;12.17;;;8.40;;
72037;SDS011;59900;50.788;12.904;2022-10-18T11:32:43;11.73;;;8.00;;
72037;SDS011;59900;50.788;12.904;2022-10-18T11:35:25;13.10;;;8.27;;
72037;SDS011;59900;50.788;12.904;2022-10-18T11:41:20;14.60;;;7.00;;
72037;SDS011;59900;50.788;12.904;2022-10-18T11:44:08;12.00;;;7.03;;
72037;SDS011;59900;50.788;12.904;2022-10-18T11:49:24;11.25;;;7.65;;
72037;SDS011;59900;50.788;12.904;2022-10-18T11:58:00;7.90;;;4.40;;
72037;SDS011;59900;50.788;12.904;2022-10-18T12:06:23;6.95;;;3.15;;
72037;SDS011;59900;50.788;12.904;2022-10-18T12:08:53;4.70;;;2.50;;
72037;SDS011;59900;50.788;12.904;2022-10-18T12:11:25;4.50;;;2.40;;
72037;SDS011;59900;50.788;12.904;2022-10-18T12:13:55;5.07;;;2.35;;
72037;SDS011;59900;50.788;12.904;2022-10-18T12:16:26;4.35;;;2.25;;
72037;SDS011;59900;50.788;12.904;2022-10-18T12:18:55;6.90;;;2.00;;
72037;SDS011;59900;50.788;12.904;2022-10-18T12:21:24;5.85;;;2.22;;
72037;SDS011;59900;50.788;12.904;2022-10-18T12:23:55;5.57;;;2.10;;
72037;SDS011;59900;50.788;12.904;2022-10-18T12:26:24;4.45;;;2.17;;
72037;SDS011;59900;50.788;12.904;2022-10-18T12:33:53;3.65;;;2.08;;
72037;SDS011;59900;50.788;12.904;2022-10-18T12:39:25;3.80;;;1.80;;
72037;SDS011;59900;50.788;12.904;2022-10-18T12:41:54;4.78;;;2.22;;
72037;SDS011;59900;50.788;12.904;2022-10-18T12:44:30;4.10;;;2.20;;
72037;SDS011;59900;50.788;12.904;2022-10-18T12:46:58;4.65;;;2.10;;
72037;SDS011;59900;50.788;12.904;2022-10-18T12:49:35;4.47;;;2.13;;
72037;SDS011;59900;50.788;12.904;2022-10-18T12:52:06;3.27;;;1.70;;
72037;SDS011;59900;50.788;12.904;2022-10-18T12:57:59;3.40;;;1.95;;
72037;SDS011;59900;50.788;12.904;2022-10-18T13:08:31;4.65;;;2.20;;
72037;SDS011;59900;50.788;12.904;2022-10-18T13:16:41;3.70;;;1.73;;
72037;SDS011;59900;50.788;12.904;2022-10-18T13:19:25;3.57;;;1.70;;
72037;SDS011;59900;50.788;12.904;2022-10-18T13:22:14;4.00;;;1.90;;
72037;SDS011;59900;50.788;12.904;2022-10-18T13:27:39;5.65;;;2.20;;
72037;SDS011;59900;50.788;12.904;2022-10-18T13:30:26;4.88;;;2.20;;
72037;SDS011;59900;50.788;12.904;2022-10-18T13:38:37;4.35;;;2.38;;
72037;SDS011;59900;50.788;12.904;2022-10-18T13:41:16;3.75;;;1.85;;
72037;SDS011;59900;50.788;12.904;2022-10-18T13:43:50;4.00;;;1.70;;
72037;SDS011;59900;50.788;12.904;2022-10-18T13:51:59;5.85;;;2.22;;
72037;SDS011;59900;50.788;12.904;2022-10-18T13:54:48;5.75;;;2.88;;
72037;SDS011;59900;50.788;12.904;2022-10-18T13:57:44;4.60;;;2.10;;
72037;SDS011;59900;50.788;12.904;2022-10-18T14:05:46;5.15;;;2.00;;
72037;SDS011;59900;50.788;12.904;2022-10-18T14:08:24;4.03;;;1.90;;
72037;SDS011;59900;50.788;12.904;2022-10-18T14:13:40;4.67;;;2.03;;
72037;SDS011;59900;50.788;12.904;2022-10-18T14:16:23;3.85;;;2.08;;
72037;SDS011;59900;50.788;12.904;2022-10-18T14:18:58;4.47;;;1.80;;
72037;SDS011;59900;50.788;12.904;2022-10-18T14:21:33;2.60;;;1.40;;
72037;SDS011;59900;50.788;12.904;2022-10-18T14:24:06;3.00;;;1.63;;
72037;SDS011;59900;50.788;12.904;2022-10-18T14:26:38;6.33;;;2.03;;
72037;SDS011;59900;50.788;12.904;2022-10-18T14:29:04;3.97;;;1.80;;
72037;SDS011;59900;50.788;12.904;2022-10-18T14:31:30;4.10;;;2.23;;
72037;SDS011;59900;50.788;12.904;2022-10-18T14:33:57;3.40;;;1.60;;
72037;SDS011;59900;50.788;12.904;2022-10-18T14:36:24;2.97;;;1.80;;
72037;SDS011;59900;50.788;12.904;2022-10-18T14:44:11;3.80;;;1.70;;
72037;SDS011;59900;50.788;12.904;2022-10-18T14:46:59;4.07;;;1.77;;
72037;SDS011;59900;50.788;12.904;2022-10-18T14:49:26;3.83;;;1.77;;
72037;SDS011;59900;50.788;12.904;2022-10-18T14:51:54;3.28;;;1.83;;
72037;SDS011;59900;50.788;12.904;2022-10-18T14:54:31;3.55;;;2.10;;
72037;SDS011;59900;50.788;12.904;2022-10-18T14:56:58;4.37;;;1.97;;
72037;SDS011;59900;50.788;12.904;2022-10-18T14:59:25;4.57;;;2.05;;
72037;SDS011;59900;50.788;12.904;2022-10-18T15:01:54;6.38;;;1.90;;
72037;SDS011;59900;50.788;12.904;2022-10-18T15:04:22;3.78;;;1.90;;
72037;SDS011;59900;50.788;12.904;2022-10-18T15:06:54;8.23;;;2.90;;
72037;SDS011;59900;50.788;12.904;2022-10-18T15:09:21;3.93;;;2.27;;
72037;SDS011;59900;50.788;12.904;2022-10-18T15:11:47;6.45;;;2.03;;
72037;SDS011;59900;50.788;12.904;2022-10-18T15:14:14;4.23;;;1.90;;
72037;SDS011;59900;50.788;12.904;2022-10-18T15:16:42;3.72;;;1.88;;
72037;SDS011;59900;50.788;12.904;2022-10-18T15:22:25;4.60;;;2.25;;
72037;SDS011;59900;50.788;12.904;2022-10-18T15:26:51;4.00;;;2.43;;
72037;SDS011;59900;50.788;12.904;2022-10-18T15:29:19;4.70;;;2.42;;
72037;SDS011;59900;50.788;12.904;2022-10-18T15:31:46;4.60;;;2.38;;
72037;SDS011;59900;50.788;12.904;2022-10-18T15:36:50;5.07;;;2.45;;
72037;SDS011;59900;50.788;12.904;2022-10-18T15:39:21;4.10;;;2.20;;
72037;SDS011;59900;50.788;12.904;2022-10-18T15:41:58;4.43;;;2.10;;
72037;SDS011;59900;50.788;12.904;2022-10-18T15:44:32;4.75;;;2.65;;
72037;SDS011;59900;50.788;12.904;2022-10-18T15:52:26;4.10;;;2.33;;
72037;SDS011;59900;50.788;12.904;2022-10-18T15:54:55;4.80;;;2.27;;
72037;SDS011;59900;50.788;12.904;2022-10-18T15:57:21;4.75;;;2.28;;
72037;SDS011;59900;50.788;12.904;2022-10-18T15:59:51;4.68;;;2.30;;
72037;SDS011;59900;50.788;12.904;2022-10-18T16:02:16;4.65;;;2.70;;
72037;SDS011;59900;50.788;12.904;2022-10-18T16:04:42;5.70;;;2.77;;
72037;SDS011;59900;50.788;12.904;2022-10-18T16:07:08;5.93;;;3.00;;
72037;SDS011;59900;50.788;12.904;2022-10-18T16:09:35;5.53;;;3.33;;
72037;SDS011;59900;50.788;12.904;2022-10-18T16:12:00;5.10;;;3.10;;
72037;SDS011;59900;50.788;12.904;2022-10-18T16:14:27;5.03;;;2.38;;
72037;SDS011;59900;50.788;12.904;2022-10-18T16:16:54;5.70;;;2.70;;
72037;SDS011;59900;50.788;12.904;2022-10-18T16:19:25;4.88;;;2.47;;
72037;SDS011;59900;50.788;12.904;2022-10-18T16:21:51;5.15;;;2.58;;
72037;SDS011;59900;50.788;12.904;2022-10-18T16:24:18;6.57;;;3.40;;
72037;SDS011;59900;50.788;12.904;2022-10-18T16:26:44;5.68;;;2.70;;
72037;SDS011;59900;50.788;12.904;2022-10-18T16:29:11;6.57;;;3.35;;
72037;SDS011;59900;50.788;12.904;2022-10-18T16:31:40;5.40;;;2.72;;
72037;SDS011;59900;50.788;12.904;2022-10-18T16:34:06;5.83;;;3.60;;
72037;SDS011;59900;50.788;12.904;2022-10-18T16:36:34;6.97;;;3.10;;
72037;SDS011;59900;50.788;12.904;2022-10-18T16:39:01;7.03;;;3.13;;